createdAt,value
2023-03-26T00:02:13.050Z,99.90
2023-03-26T00:04:42.505Z,99.90
2023-03-26T00:07:10.534Z,99.90
2023-03-26T00:09:37.163Z,99.90
2023-03-26T00:12:04.138Z,99.90
2023-03-26T00:14:30.761Z,99.90
2023-03-26T00:16:57.487Z,99.90
2023-03-26T00:19:24.105Z,99.90
2023-03-26T00:21:52.672Z,99.90
2023-03-26T00:24:19.269Z,99.90
2023-03-26T00:26:53.005Z,99.90
2023-03-26T00:29:19.620Z,99.90
2023-03-26T00:31:46.671Z,99.90
2023-03-26T00:34:15.660Z,99.90
2023-03-26T00:36:43.838Z,99.90
2023-03-26T00:39:10.504Z,99.90
2023-03-26T00:41:42.940Z,99.90
2023-03-26T00:44:09.875Z,99.90
2023-03-26T00:46:37.088Z,99.90
2023-03-26T00:49:04.008Z,99.90
2023-03-26T00:51:30.745Z,39.70
2023-03-26T00:53:57.450Z,27.20
2023-03-26T00:56:24.145Z,23.20
2023-03-26T00:58:50.756Z,1.10
2023-03-26T01:01:20.772Z,1.00
2023-03-26T01:04:04.844Z,1.00
2023-03-26T01:06:36.163Z,1.00
2023-03-26T01:09:36.248Z,1.00
2023-03-26T01:12:04.277Z,1.00
2023-03-26T01:14:30.931Z,99.90
2023-03-26T01:16:59.265Z,99.90
2023-03-26T01:19:46.650Z,99.90
2023-03-26T01:22:18.921Z,99.90
2023-03-26T01:24:53.118Z,99.90
2023-03-26T01:27:43.276Z,99.90
2023-03-26T01:30:22.587Z,99.90
2023-03-26T01:32:59.175Z,99.90
2023-03-26T01:35:48.431Z,99.90
2023-03-26T01:38:37.660Z,99.90
2023-03-26T01:41:09.611Z,99.90
2023-03-26T01:43:40.181Z,99.90
2023-03-26T01:46:08.120Z,99.90
2023-03-26T01:48:36.968Z,99.90
2023-03-26T01:51:04.670Z,99.90
2023-03-26T01:53:32.073Z,99.90
2023-03-26T01:56:18.233Z,99.90
2023-03-26T01:59:13.641Z,99.90
2023-03-26T02:02:12.585Z,99.90
2023-03-26T02:04:48.133Z,99.90
2023-03-26T02:07:41.067Z,99.90
2023-03-26T02:10:13.754Z,99.90
2023-03-26T02:12:41.579Z,99.90
2023-03-26T02:15:08.790Z,99.90
2023-03-26T02:17:36.115Z,99.90
2023-03-26T02:20:05.939Z,87.80
2023-03-26T02:22:32.614Z,77.10
2023-03-26T02:24:59.260Z,1.00
2023-03-26T02:27:26.180Z,1.00
2023-03-26T02:29:52.867Z,1.00
2023-03-26T02:32:20.116Z,1.00
2023-03-26T02:34:47.311Z,1.00
2023-03-26T02:37:13.985Z,9.10
2023-03-26T02:39:40.659Z,1.00
2023-03-26T02:42:07.318Z,9.20
2023-03-26T02:44:33.925Z,6.10
2023-03-26T02:47:00.605Z,7.20
2023-03-26T02:49:27.223Z,1.00
2023-03-26T02:51:56.275Z,1.00
2023-03-26T02:54:23.305Z,1.00
2023-03-26T02:56:49.941Z,1.00
2023-03-26T02:59:16.586Z,1.00
2023-03-26T03:01:43.215Z,1.00
2023-03-26T03:04:10.987Z,1.00
2023-03-26T03:06:40.456Z,1.00
2023-03-26T03:09:08.547Z,1.00
2023-03-26T03:11:35.871Z,1.00
2023-03-26T03:14:02.538Z,1.00
2023-03-26T03:16:29.193Z,1.00
2023-03-26T03:18:58.048Z,1.00
2023-03-26T03:21:26.283Z,1.00
2023-03-26T03:23:53.955Z,1.00
2023-03-26T03:26:21.860Z,5.80
2023-03-26T03:28:49.234Z,17.60
2023-03-26T03:31:16.662Z,1.10
2023-03-26T03:33:43.727Z,20.60
2023-03-26T03:36:20.782Z,38.80
2023-03-26T03:38:48.670Z,80.10
2023-03-26T03:41:15.543Z,99.90
2023-03-26T03:43:42.158Z,99.90
2023-03-26T03:46:08.821Z,99.90
2023-03-26T03:48:38.163Z,99.90
2023-03-26T03:51:05.943Z,99.90
2023-03-26T03:53:36.918Z,99.90
2023-03-26T03:56:04.533Z,99.90
2023-03-26T03:58:31.243Z,99.90
2023-03-26T04:01:04.286Z,99.90
2023-03-26T04:03:33.671Z,99.90
2023-03-26T04:06:01.200Z,99.90
2023-03-26T04:08:27.835Z,99.90
2023-03-26T04:10:54.459Z,99.90
2023-03-26T04:13:21.498Z,99.90
2023-03-26T04:15:48.179Z,99.90
2023-03-26T04:18:14.817Z,99.90
2023-03-26T04:20:46.386Z,1.00
2023-03-26T04:23:14.261Z,1.00
2023-03-26T04:25:48.454Z,1.00
2023-03-26T04:28:19.730Z,1.00
2023-03-26T04:30:46.315Z,1.00
2023-03-26T04:33:15.448Z,1.00
2023-03-26T04:35:44.359Z,1.00
2023-03-26T04:38:11.046Z,1.00
2023-03-26T04:40:39.042Z,1.00
2023-03-26T04:43:06.338Z,1.00
2023-03-26T04:45:32.977Z,1.00
2023-03-26T04:47:59.777Z,1.00
2023-03-26T04:50:26.695Z,1.00
2023-03-26T04:52:53.877Z,1.00
2023-03-26T04:55:31.815Z,1.00
2023-03-26T04:58:00.299Z,1.00
2023-03-26T05:00:28.811Z,1.00
2023-03-26T05:02:57.783Z,1.00
2023-03-26T05:05:25.606Z,1.00
2023-03-26T05:07:52.207Z,1.00
2023-03-26T05:10:20.794Z,1.00
2023-03-26T05:12:47.505Z,1.00
2023-03-26T05:15:14.798Z,1.00
2023-03-26T05:17:42.801Z,1.00
2023-03-26T05:20:17.104Z,1.00
2023-03-26T05:22:44.194Z,1.00
2023-03-26T05:25:11.272Z,1.00
2023-03-26T05:27:38.117Z,1.00
2023-03-26T05:30:05.849Z,1.00
2023-03-26T05:32:32.827Z,1.00
2023-03-26T05:34:59.635Z,99.90
2023-03-26T05:37:31.205Z,99.90
2023-03-26T05:39:58.094Z,99.90
2023-03-26T05:42:24.730Z,99.90
2023-03-26T05:44:51.366Z,99.90
2023-03-26T05:47:18.064Z,99.90
2023-03-26T05:49:44.670Z,48.80
2023-03-26T05:52:15.265Z,1.00
2023-03-26T05:54:42.515Z,64.20
2023-03-26T05:57:09.272Z,42.80
2023-03-26T05:59:36.658Z,1.00
2023-03-26T06:02:03.668Z,1.00
2023-03-26T06:04:31.859Z,21.70
2023-03-26T06:06:58.600Z,99.90
2023-03-26T06:09:25.288Z,99.90
2023-03-26T06:11:51.888Z,99.90
2023-03-26T06:14:18.554Z,99.90
2023-03-26T06:16:45.147Z,99.90
2023-03-26T06:19:11.917Z,99.90
2023-03-26T06:21:38.736Z,99.90
2023-03-26T06:24:05.860Z,99.90
2023-03-26T06:26:32.480Z,99.90
2023-03-26T06:28:59.198Z,99.90
2023-03-26T06:31:25.850Z,93.20
2023-03-26T06:33:53.186Z,1.00
2023-03-26T06:36:20.383Z,1.00
2023-03-26T06:38:47.082Z,99.90
2023-03-26T06:41:13.727Z,99.90
2023-03-26T06:43:40.345Z,41.90
2023-03-26T06:46:07.024Z,99.90
2023-03-26T06:48:33.806Z,1.00
2023-03-26T06:51:00.639Z,1.00
2023-03-26T06:53:27.272Z,1.00
2023-03-26T06:55:54.518Z,1.00
2023-03-26T06:58:24.344Z,1.00
2023-03-26T07:00:53.880Z,1.00
2023-03-26T07:03:21.000Z,1.00
2023-03-26T07:05:47.661Z,1.00
2023-03-26T07:08:14.338Z,1.00
2023-03-26T07:10:41.007Z,1.00
2023-03-26T07:13:07.866Z,1.00
2023-03-26T07:15:34.474Z,1.00
2023-03-26T07:18:01.128Z,1.00
2023-03-26T07:20:28.052Z,1.00
2023-03-26T07:22:54.887Z,1.00
2023-03-26T07:25:21.757Z,1.00
2023-03-26T07:27:58.757Z,99.90
2023-03-26T07:30:56.062Z,1.00
2023-03-26T07:33:38.509Z,1.00
2023-03-26T07:36:40.573Z,99.90
2023-03-26T07:39:30.795Z,99.90
2023-03-26T07:42:17.523Z,99.90
2023-03-26T07:45:14.112Z,99.90
2023-03-26T07:47:41.465Z,1.00
2023-03-26T07:50:09.973Z,1.00
2023-03-26T07:52:36.786Z,1.00
2023-03-26T07:55:03.586Z,1.00
2023-03-26T07:57:46.481Z,1.00
2023-03-26T08:00:34.775Z,1.00
2023-03-26T08:03:01.626Z,1.00
2023-03-26T08:06:05.503Z,1.00
2023-03-26T08:08:53.439Z,1.00
2023-03-26T08:11:29.131Z,1.00
2023-03-26T08:14:01.168Z,1.00
2023-03-26T08:16:38.965Z,1.00
2023-03-26T08:19:26.699Z,1.00
2023-03-26T08:22:12.599Z,1.00
2023-03-26T08:25:07.514Z,1.00
2023-03-26T08:27:41.389Z,1.00
2023-03-26T08:30:16.013Z,1.00
2023-03-26T08:32:42.908Z,1.00
2023-03-26T08:35:15.177Z,1.00
2023-03-26T08:37:41.809Z,1.00
2023-03-26T08:40:09.363Z,1.00
2023-03-26T08:43:09.311Z,1.00
2023-03-26T08:45:51.259Z,1.00
2023-03-26T08:48:36.359Z,1.00
2023-03-26T08:51:10.772Z,1.00
2023-03-26T08:53:52.354Z,1.00
2023-03-26T08:56:57.571Z,1.00
2023-03-26T08:59:41.102Z,1.00
2023-03-26T09:02:20.679Z,1.00
2023-03-26T09:05:24.990Z,1.00
2023-03-26T09:08:20.380Z,1.00
2023-03-26T09:10:59.405Z,1.00
2023-03-26T09:13:28.849Z,1.00
2023-03-26T09:16:20.561Z,1.00
2023-03-26T09:19:05.730Z,1.00
2023-03-26T09:21:38.063Z,1.00
2023-03-26T09:24:32.900Z,1.00
2023-03-26T09:27:18.604Z,1.00
2023-03-26T09:30:03.880Z,1.00
2023-03-26T09:32:33.588Z,1.00
2023-03-26T09:35:33.657Z,1.00
2023-03-26T09:38:03.318Z,1.00
2023-03-26T09:40:37.234Z,1.00
2023-03-26T09:43:20.795Z,1.00
2023-03-26T09:46:26.500Z,1.00
2023-03-26T09:49:25.077Z,1.00
2023-03-26T09:52:19.129Z,1.00
2023-03-26T09:55:15.063Z,1.00
2023-03-26T09:58:16.723Z,1.00
2023-03-26T10:01:32.168Z,1.00
2023-03-26T10:04:11.126Z,1.00
2023-03-26T10:06:37.828Z,1.00
2023-03-26T10:09:10.640Z,1.00
2023-03-26T10:11:37.444Z,1.00
2023-03-26T10:14:14.765Z,1.00
2023-03-26T10:16:52.728Z,1.00
2023-03-26T10:19:25.348Z,1.00
2023-03-26T10:21:55.401Z,1.00
2023-03-26T10:24:38.818Z,1.00
2023-03-26T10:27:09.019Z,1.00
2023-03-26T10:29:44.960Z,1.00
2023-03-26T10:32:44.230Z,1.00
2023-03-26T10:35:26.369Z,1.00
2023-03-26T10:38:17.935Z,1.00
2023-03-26T10:41:12.937Z,1.00
2023-03-26T10:43:49.710Z,1.00
2023-03-26T10:46:39.574Z,1.00
2023-03-26T10:49:16.664Z,1.00
2023-03-26T10:51:59.335Z,1.00
2023-03-26T10:54:25.951Z,1.00
2023-03-26T10:56:52.907Z,1.00
2023-03-26T10:59:19.639Z,1.00
2023-03-26T11:01:59.028Z,1.00
2023-03-26T11:04:35.598Z,1.00
2023-03-26T11:07:21.648Z,1.00
2023-03-26T11:09:58.153Z,1.00
2023-03-26T11:12:42.006Z,1.00
2023-03-26T11:15:22.519Z,1.00
2023-03-26T11:17:56.358Z,1.00
2023-03-26T11:20:41.901Z,1.00
2023-03-26T11:23:44.942Z,1.00
2023-03-26T11:26:27.357Z,1.00
2023-03-26T11:29:32.413Z,1.00
2023-03-26T11:32:04.553Z,1.00
2023-03-26T11:34:35.480Z,1.00
2023-03-26T11:37:02.337Z,1.00
2023-03-26T11:39:30.337Z,1.00
2023-03-26T11:42:23.856Z,1.00
2023-03-26T11:44:57.325Z,1.00
2023-03-26T11:47:29.479Z,1.00
2023-03-26T11:49:56.156Z,1.00
2023-03-26T11:52:23.274Z,1.00
2023-03-26T11:54:50.911Z,1.00
2023-03-26T11:57:26.936Z,1.00
2023-03-26T12:00:16.116Z,10.90
2023-03-26T12:02:43.070Z,15.40
2023-03-26T12:05:15.352Z,1.00
2023-03-26T12:08:02.121Z,1.00
2023-03-26T12:10:39.359Z,1.00
2023-03-26T12:13:32.504Z,1.00
2023-03-26T12:16:01.434Z,1.00
2023-03-26T12:18:28.175Z,1.00
2023-03-26T12:21:09.280Z,1.00
2023-03-26T12:23:56.547Z,1.00
2023-03-26T12:26:43.106Z,1.00
2023-03-26T12:29:14.549Z,1.00
2023-03-26T12:32:12.248Z,1.00
2023-03-26T12:34:39.584Z,1.00
2023-03-26T12:37:07.641Z,1.00
2023-03-26T12:40:08.049Z,1.00
2023-03-26T12:44:54.390Z,1.00
2023-03-26T12:45:15.017Z,1.00
2023-03-26T12:47:59.262Z,1.00
2023-03-26T12:51:13.605Z,1.00
2023-03-26T12:54:13.439Z,1.00
2023-03-26T12:57:16.964Z,1.00
2023-03-26T13:00:21.249Z,1.00
2023-03-26T13:03:03.973Z,1.00
2023-03-26T13:05:42.493Z,1.00
2023-03-26T13:08:40.588Z,1.00
2023-03-26T13:11:44.601Z,1.00
2023-03-26T13:14:26.223Z,1.00
2023-03-26T13:16:57.645Z,1.00
2023-03-26T13:19:39.254Z,1.00
2023-03-26T13:22:17.302Z,1.00
2023-03-26T13:24:47.983Z,1.00
2023-03-26T13:27:39.261Z,1.00
2023-03-26T13:30:14.988Z,1.00
2023-03-26T13:33:06.116Z,1.00
2023-03-26T13:36:19.037Z,1.00
2023-03-26T13:39:13.280Z,1.00
2023-03-26T13:41:54.345Z,1.00
2023-03-26T13:44:22.990Z,1.00
2023-03-26T13:46:55.421Z,1.00
2023-03-26T13:49:33.694Z,1.00
2023-03-26T13:52:02.952Z,1.00
2023-03-26T13:55:07.298Z,1.00
2023-03-26T13:57:35.788Z,1.00
2023-03-26T14:00:12.560Z,1.00
2023-03-26T14:02:43.346Z,1.00
2023-03-26T14:05:28.616Z,1.00
2023-03-26T14:08:02.196Z,1.00
2023-03-26T14:10:31.012Z,1.00
2023-03-26T14:13:06.672Z,1.00
2023-03-26T14:15:38.554Z,1.00
2023-03-26T14:18:59.574Z,1.00
2023-03-26T14:21:44.460Z,1.00
2023-03-26T14:24:31.018Z,1.00
2023-03-26T14:27:05.364Z,1.00
2023-03-26T14:29:37.874Z,1.00
2023-03-26T14:32:24.303Z,1.00
2023-03-26T14:35:06.237Z,1.00
2023-03-26T14:37:44.121Z,1.00
2023-03-26T14:40:16.607Z,1.00
2023-03-26T14:42:46.821Z,1.00
2023-03-26T14:45:45.078Z,1.00
2023-03-26T14:48:33.717Z,1.00
2023-03-26T14:51:09.490Z,1.00
2023-03-26T14:53:37.959Z,1.00
2023-03-26T14:56:29.602Z,1.00
2023-03-26T14:59:16.418Z,1.00
2023-03-26T15:02:13.499Z,1.00
2023-03-26T15:05:04.199Z,1.00
2023-03-26T15:07:52.718Z,1.00
2023-03-26T15:10:41.208Z,1.00
2023-03-26T15:13:31.661Z,1.00
2023-03-26T15:16:07.056Z,1.00
2023-03-26T15:18:48.789Z,1.00
2023-03-26T15:21:34.301Z,1.00
2023-03-26T15:24:16.175Z,1.00
2023-03-26T15:26:59.114Z,1.00
2023-03-26T15:29:45.817Z,1.00
2023-03-26T15:32:40.452Z,1.00
2023-03-26T15:35:36.282Z,1.00
2023-03-26T15:38:26.005Z,1.00
2023-03-26T15:40:56.657Z,1.00
2023-03-26T15:43:23.929Z,1.00
2023-03-26T15:46:23.085Z,1.00
2023-03-26T15:49:12.238Z,1.00
2023-03-26T15:52:01.670Z,1.00
2023-03-26T15:54:45.622Z,1.00
2023-03-26T15:57:21.365Z,11.60
2023-03-26T16:00:15.229Z,82.80
2023-03-26T16:03:09.101Z,99.90
2023-03-26T16:05:51.184Z,99.90
2023-03-26T16:08:38.772Z,99.90
2023-03-26T16:11:09.520Z,99.90
2023-03-26T16:13:48.845Z,99.90
2023-03-26T16:16:15.755Z,99.90
2023-03-26T16:18:44.018Z,99.90
2023-03-26T16:21:36.419Z,99.90
2023-03-26T16:24:03.119Z,99.90
2023-03-26T16:26:45.464Z,99.90
2023-03-26T16:29:14.994Z,99.90
2023-03-26T16:32:16.042Z,99.90
2023-03-26T16:34:48.130Z,99.90
2023-03-26T16:37:36.466Z,99.90
2023-03-26T16:40:20.439Z,99.90
2023-03-26T16:43:24.279Z,99.90
2023-03-26T16:46:31.631Z,99.90
2023-03-26T16:49:19.009Z,99.90
2023-03-26T16:52:13.288Z,99.90
2023-03-26T16:54:50.569Z,99.90
2023-03-26T16:57:27.838Z,99.90
2023-03-26T17:00:06.159Z,99.90
2023-03-26T17:02:48.887Z,99.90
2023-03-26T17:05:21.114Z,99.90
2023-03-26T17:07:50.306Z,99.90
2023-03-26T17:10:30.790Z,1.00
2023-03-26T17:13:05.204Z,1.00
2023-03-26T17:15:43.897Z,1.00
2023-03-26T17:18:47.627Z,1.00
2023-03-26T17:21:26.559Z,99.90
2023-03-26T17:24:15.585Z,1.00
2023-03-26T17:27:05.487Z,1.00
2023-03-26T17:30:00.565Z,1.00
2023-03-26T17:32:55.307Z,8.00
2023-03-26T17:35:44.992Z,99.90
2023-03-26T17:38:23.766Z,99.90
2023-03-26T17:40:58.606Z,99.90
2023-03-26T17:43:37.543Z,99.90
2023-03-26T17:46:33.371Z,99.90
2023-03-26T17:49:12.097Z,99.90
2023-03-26T17:52:06.162Z,99.90
2023-03-26T17:54:48.647Z,99.90
2023-03-26T17:57:30.447Z,1.00
2023-03-26T17:59:58.403Z,99.90
2023-03-26T18:02:36.190Z,1.00
2023-03-26T18:05:04.714Z,1.00
2023-03-26T18:07:52.563Z,99.90
2023-03-26T18:10:38.873Z,99.90
2023-03-26T18:13:12.424Z,99.90
2023-03-26T18:16:01.121Z,99.90
2023-03-26T18:18:37.202Z,99.90
2023-03-26T18:21:07.073Z,99.90
2023-03-26T18:23:39.040Z,99.90
2023-03-26T18:26:14.050Z,99.90
2023-03-26T18:28:43.091Z,99.90
2023-03-26T18:31:22.645Z,99.90
2023-03-26T18:33:50.052Z,99.90
2023-03-26T18:36:18.471Z,99.90
2023-03-26T18:38:45.681Z,99.90
2023-03-26T18:41:31.174Z,99.90
2023-03-26T18:44:04.645Z,99.90
2023-03-26T18:46:32.458Z,99.90
2023-03-26T18:49:00.818Z,99.90
2023-03-26T18:51:28.058Z,99.90
2023-03-26T18:53:57.935Z,99.90
2023-03-26T18:56:44.647Z,1.00
2023-03-26T18:59:31.827Z,50.50
2023-03-26T19:02:12.999Z,1.00
2023-03-26T19:04:39.887Z,99.90
2023-03-26T19:07:07.541Z,1.00
2023-03-26T19:09:34.281Z,1.00
2023-03-26T19:12:08.711Z,99.90
2023-03-26T19:15:11.073Z,99.90
2023-03-26T19:17:45.097Z,99.90
2023-03-26T19:20:18.838Z,1.00
2023-03-26T19:22:46.269Z,1.00
2023-03-26T19:25:24.133Z,1.00
2023-03-26T19:27:51.607Z,1.00
2023-03-26T19:30:28.348Z,99.90
2023-03-26T19:32:55.836Z,99.90
2023-03-26T19:35:40.363Z,99.90
2023-03-26T19:38:34.442Z,99.90
2023-03-26T19:41:01.717Z,99.90
2023-03-26T19:43:28.611Z,99.90
2023-03-26T19:45:59.640Z,99.90
2023-03-26T19:48:46.696Z,99.90
2023-03-26T19:51:21.380Z,99.90
2023-03-26T19:53:50.044Z,99.90
2023-03-26T19:56:18.593Z,99.90
2023-03-26T19:58:45.754Z,99.90
2023-03-26T20:01:23.647Z,99.90
2023-03-26T20:03:59.791Z,94.10
2023-03-26T20:06:41.846Z,1.00
2023-03-26T20:09:11.206Z,1.00
2023-03-26T20:11:39.234Z,1.00
2023-03-26T20:14:16.899Z,1.00
2023-03-26T20:16:45.322Z,1.00
2023-03-26T20:19:13.909Z,99.90
2023-03-26T20:21:41.391Z,1.00
2023-03-26T20:24:12.838Z,1.00
2023-03-26T20:26:39.465Z,1.00
2023-03-26T20:29:06.227Z,1.00
2023-03-26T20:31:32.981Z,1.00
2023-03-26T20:33:59.684Z,1.00
2023-03-26T20:36:33.291Z,1.00
2023-03-26T20:39:01.177Z,1.00
2023-03-26T20:41:27.825Z,1.00
2023-03-26T20:43:54.438Z,1.00
2023-03-26T20:46:23.219Z,1.00
2023-03-26T20:48:58.046Z,1.00
2023-03-26T20:51:24.671Z,1.00
2023-03-26T20:53:51.269Z,1.00
2023-03-26T20:56:18.955Z,99.90
2023-03-26T20:58:46.366Z,99.90
2023-03-26T21:01:13.801Z,99.90
2023-03-26T21:03:40.836Z,99.90
2023-03-26T21:06:10.448Z,99.90
2023-03-26T21:08:37.856Z,99.90
2023-03-26T21:11:05.836Z,99.90
2023-03-26T21:13:35.148Z,99.90
2023-03-26T21:16:02.207Z,99.90
2023-03-26T21:18:28.989Z,87.70
2023-03-26T21:21:21.240Z,15.00
2023-03-26T21:24:00.122Z,5.60
2023-03-26T21:26:33.058Z,1.00
2023-03-26T21:29:01.128Z,1.00
2023-03-26T21:31:31.205Z,1.00
2023-03-26T21:33:58.179Z,1.00
2023-03-26T21:36:25.160Z,1.00
2023-03-26T21:38:54.551Z,1.00
2023-03-26T21:41:31.077Z,1.00
2023-03-26T21:43:59.413Z,1.00
2023-03-26T21:46:27.049Z,1.00
2023-03-26T21:48:53.878Z,1.00
2023-03-26T21:51:21.123Z,1.00
2023-03-26T21:53:49.052Z,1.00
2023-03-26T21:56:37.528Z,1.00
2023-03-26T21:59:51.364Z,1.00
2023-03-26T22:02:49.048Z,1.00
2023-03-26T22:05:20.958Z,1.00
2023-03-26T22:07:59.955Z,1.00
2023-03-26T22:10:27.058Z,1.00
2023-03-26T22:12:53.946Z,1.00
2023-03-26T22:15:20.977Z,1.00
2023-03-26T22:17:53.852Z,1.00
2023-03-26T22:20:24.490Z,1.00
2023-03-26T22:22:53.507Z,1.00
2023-03-26T22:25:21.061Z,1.00
2023-03-26T22:27:47.761Z,1.00
2023-03-26T22:30:15.460Z,1.00
2023-03-26T22:32:43.256Z,1.00
2023-03-26T22:35:10.113Z,1.00
2023-03-26T22:37:37.206Z,1.00
2023-03-26T22:40:13.649Z,1.00
2023-03-26T22:42:41.169Z,1.00
2023-03-26T22:45:09.463Z,1.00
2023-03-26T22:47:36.211Z,1.00
2023-03-26T22:50:03.244Z,1.00
2023-03-26T22:52:30.144Z,1.00
2023-03-26T22:54:57.438Z,1.00
2023-03-26T22:57:24.466Z,1.00
2023-03-26T22:59:52.027Z,1.00
2023-03-26T23:02:19.262Z,1.00
2023-03-26T23:04:47.707Z,1.00
2023-03-26T23:07:14.559Z,1.00
2023-03-26T23:09:41.554Z,1.00
2023-03-26T23:12:08.340Z,1.00
2023-03-26T23:14:36.152Z,1.00
2023-03-26T23:17:02.824Z,1.00
2023-03-26T23:19:30.102Z,1.00
2023-03-26T23:21:57.341Z,1.00
2023-03-26T23:24:26.279Z,1.00
2023-03-26T23:26:53.162Z,1.00
2023-03-26T23:29:20.013Z,1.00
2023-03-26T23:31:46.932Z,1.00
2023-03-26T23:34:14.118Z,1.00
2023-03-26T23:36:41.790Z,1.00
2023-03-26T23:39:10.757Z,1.00
2023-03-26T23:41:38.185Z,1.00
2023-03-26T23:44:05.150Z,1.00
2023-03-26T23:46:34.888Z,1.00
2023-03-26T23:49:04.385Z,1.00
2023-03-26T23:51:31.534Z,1.00
2023-03-26T23:53:58.433Z,1.00
2023-03-26T23:56:27.531Z,1.00
2023-03-26T23:58:55.108Z,1.00
